Time,TemperatureF,DewpointF,PressureIn,WindDirection,WindDirectionDegrees,WindSpeedMPH,WindSpeedGustMPH,Humidity,HourlyPrecipIn,Conditions,Clouds,dailyrainin,SoftwareType,DateUTC
2013-01-18 00:02:00,2.6,-3.5,30.40,WSW,254,0.0,0.0,75,0.00,,---,0.00,VWS V13.01,2013-01-18 06:02:00,
2013-01-18 00:07:00,2.5,-3.6,30.40,SW,233,0.0,4.0,75,0.00,,---,0.00,VWS V13.01,2013-01-18 06:07:00,
2013-01-18 00:12:00,2.5,-3.3,30.39,West,265,0.0,4.0,76,0.00,,---,0.00,VWS V13.01,2013-01-18 06:12:00,
2013-01-18 00:17:00,2.4,-3.4,30.39,West,259,0.0,4.0,76,0.00,,---,0.00,VWS V13.01,2013-01-18 06:17:00,
2013-01-18 00:22:00,2.4,-3.4,30.39,West,259,1.0,4.0,76,0.00,,---,0.00,VWS V13.01,2013-01-18 06:22:00,
2013-01-18 00:28:00,2.3,-3.5,30.39,West,261,0.0,4.0,76,0.00,,---,0.00,VWS V13.01,2013-01-18 06:28:00,
2013-01-18 00:33:00,2.3,-3.5,30.39,West,261,0.0,1.0,76,0.00,,---,0.00,VWS V13.01,2013-01-18 06:33:00,
2013-01-18 00:38:00,2.2,-3.6,30.39,West,261,0.0,1.0,76,0.00,,---,0.00,VWS V13.01,2013-01-18 06:38:00,
2013-01-18 00:43:00,2.1,-3.7,30.39,West,261,0.0,1.0,76,0.00,,---,0.00,VWS V13.01,2013-01-18 06:43:00,
2013-01-18 00:48:00,2.0,-3.8,30.39,SW,229,0.0,1.0,76,0.00,,---,0.00,VWS V13.01,2013-01-18 06:48:00,
2013-01-18 00:53:00,1.8,-4.0,30.39,SW,229,0.0,1.0,76,0.00,,---,0.00,VWS V13.01,2013-01-18 06:53:00,
2013-01-18 00:58:00,1.7,-4.1,30.39,SW,229,0.0,1.0,76,0.00,,---,0.00,VWS V13.01,2013-01-18 06:58:00,
2013-01-18 01:03:00,1.6,-3.9,30.40,SW,229,0.0,0.0,77,0.00,,---,0.00,VWS V13.01,2013-01-18 07:03:00,
2013-01-18 01:08:00,1.5,-4.0,30.40,SW,229,0.0,1.0,77,0.00,,---,0.00,VWS V13.01,2013-01-18 07:08:00,
2013-01-18 01:13:00,1.5,-4.0,30.40,WSW,250,1.0,1.0,77,0.00,,---,0.00,VWS V13.01,2013-01-18 07:13:00,
2013-01-18 01:18:00,1.4,-4.1,30.40,WSW,250,0.0,1.0,77,0.00,,---,0.00,VWS V13.01,2013-01-18 07:18:00,
2013-01-18 01:23:00,1.4,-4.1,30.40,WSW,250,0.0,1.0,77,0.00,,---,0.00,VWS V13.01,2013-01-18 07:23:00,
2013-01-18 01:28:00,1.3,-4.0,30.40,WSW,249,0.0,1.0,78,0.00,,---,0.00,VWS V13.01,2013-01-18 07:28:00,
2013-01-18 01:33:00,1.3,-4.0,30.40,WSW,252,2.0,2.0,78,0.00,,---,0.00,VWS V13.01,2013-01-18 07:33:00,
2013-01-18 01:38:00,1.2,-4.1,30.40,West,265,0.0,2.0,78,0.00,,---,0.00,VWS V13.01,2013-01-18 07:38:00,
2013-01-18 01:43:00,1.2,-4.1,30.40,West,260,0.0,2.0,78,0.00,,---,0.00,VWS V13.01,2013-01-18 07:43:00,
2013-01-18 01:48:00,1.2,-4.1,30.40,WSW,248,0.0,2.0,78,0.00,,---,0.00,VWS V13.01,2013-01-18 07:48:00,
2013-01-18 01:53:00,1.2,-4.1,30.40,WSW,248,0.0,2.0,78,0.00,,---,0.00,VWS V13.01,2013-01-18 07:53:00,
2013-01-18 01:58:00,1.2,-4.1,30.40,WSW,248,0.0,2.0,78,0.00,,---,0.00,VWS V13.01,2013-01-18 07:58:00,
2013-01-18 02:03:00,1.2,-4.1,30.39,WSW,248,0.0,1.0,78,0.00,,---,0.00,VWS V13.01,2013-01-18 08:03:00,
2013-01-18 02:08:00,1.1,-4.1,30.39,WSW,248,0.0,1.0,78,0.00,,---,0.00,VWS V13.01,2013-01-18 08:08:00,
2013-01-18 02:13:00,1.1,-4.1,30.39,WSW,248,0.0,1.0,78,0.00,,---,0.00,VWS V13.01,2013-01-18 08:13:00,
2013-01-18 02:18:00,1.1,-4.1,30.40,WSW,248,0.0,1.0,78,0.00,,---,0.00,VWS V13.01,2013-01-18 08:18:00,
2013-01-18 02:23:00,1.0,-4.2,30.40,WSW,248,0.0,1.0,78,0.00,,---,0.00,VWS V13.01,2013-01-18 08:23:00,
2013-01-18 02:28:00,1.0,-4.2,30.39,WSW,248,0.0,1.0,78,0.00,,---,0.00,VWS V13.01,2013-01-18 08:28:00,
2013-01-18 02:33:00,0.9,-4.3,30.39,WSW,248,0.0,0.0,78,0.00,,---,0.00,VWS V13.01,2013-01-18 08:33:00,
2013-01-18 02:38:00,0.8,-4.4,30.39,WSW,248,0.0,0.0,78,0.00,,---,0.00,VWS V13.01,2013-01-18 08:38:00,
2013-01-18 02:43:00,0.7,-4.5,30.39,WSW,248,0.0,0.0,78,0.00,,---,0.00,VWS V13.01,2013-01-18 08:43:00,
2013-01-18 02:48:00,0.6,-4.4,30.39,WSW,248,0.0,1.0,79,0.00,,---,0.00,VWS V13.01,2013-01-18 08:48:00,
2013-01-18 02:53:00,0.6,-4.4,30.38,South,180,0.0,2.0,79,0.00,,---,0.00,VWS V13.01,2013-01-18 08:53:00,
2013-01-18 02:58:00,0.7,-4.3,30.39,SSW,194,0.0,2.0,79,0.00,,---,0.00,VWS V13.01,2013-01-18 08:58:00,
2013-01-18 03:03:00,0.9,-4.1,30.39,SSE,156,2.0,3.0,79,0.00,,---,0.00,VWS V13.01,2013-01-18 09:03:00,
2013-01-18 03:08:00,0.9,-4.1,30.39,South,170,0.0,3.0,79,0.00,,---,0.00,VWS V13.01,2013-01-18 09:08:00,
2013-01-18 03:13:00,1.0,-4.0,30.39,South,187,1.0,4.0,79,0.00,,---,0.00,VWS V13.01,2013-01-18 09:13:00,
2013-01-18 03:18:00,1.0,-4.0,30.39,SSW,202,2.0,4.0,79,0.00,,---,0.00,VWS V13.01,2013-01-18 09:18:00,
2013-01-18 03:23:00,1.1,-3.9,30.39,South,187,0.0,4.0,79,0.00,,---,0.00,VWS V13.01,2013-01-18 09:23:00,
2013-01-18 03:28:00,1.2,-3.5,30.38,South,187,0.0,4.0,80,0.00,,---,0.00,VWS V13.01,2013-01-18 09:28:00,
2013-01-18 03:33:00,1.3,-3.4,30.37,South,182,0.0,1.0,80,0.00,,---,0.00,VWS V13.01,2013-01-18 09:33:00,
2013-01-18 03:38:00,1.3,-3.7,30.37,SSW,195,0.0,2.0,79,0.00,,---,0.00,VWS V13.01,2013-01-18 09:38:00,
2013-01-18 03:43:00,1.4,-3.6,30.37,SSW,207,0.0,3.0,79,0.00,,---,0.00,VWS V13.01,2013-01-18 09:43:00,
2013-01-18 03:48:00,1.5,-3.2,30.36,SSW,192,1.0,3.0,80,0.00,,---,0.00,VWS V13.01,2013-01-18 09:48:00,
2013-01-18 03:53:00,1.5,-3.2,30.36,SSW,195,2.0,5.0,80,0.00,,---,0.00,VWS V13.01,2013-01-18 09:53:00,
2013-01-18 03:58:00,1.6,-3.4,30.37,South,180,4.0,5.0,79,0.00,,---,0.00,VWS V13.01,2013-01-18 09:58:00,
2013-01-18 04:04:00,1.7,-3.0,30.37,SSW,194,2.0,4.0,80,0.00,,---,0.00,VWS V13.01,2013-01-18 10:04:00,
2013-01-18 04:09:00,1.8,-2.9,30.36,SSW,193,1.0,5.0,80,0.00,,---,0.00,VWS V13.01,2013-01-18 10:09:00,
2013-01-18 04:14:00,1.8,-2.9,30.36,SSW,192,1.0,5.0,80,0.00,,---,0.00,VWS V13.01,2013-01-18 10:14:00,
2013-01-18 04:19:00,1.9,-2.8,30.36,SSW,192,0.0,5.0,80,0.00,,---,0.00,VWS V13.01,2013-01-18 10:19:00,
2013-01-18 04:24:00,1.9,-2.8,30.36,SW,221,0.0,5.0,80,0.00,,---,0.00,VWS V13.01,2013-01-18 10:24:00,
2013-01-18 04:29:00,1.9,-2.8,30.36,SSW,208,0.0,5.0,80,0.00,,---,0.00,VWS V13.01,2013-01-18 10:29:00,
2013-01-18 04:34:00,1.8,-2.9,30.36,SSW,208,0.0,0.0,80,0.00,,---,0.00,VWS V13.01,2013-01-18 10:34:00,
2013-01-18 04:39:00,1.8,-2.9,30.35,SSW,207,0.0,0.0,80,0.00,,---,0.00,VWS V13.01,2013-01-18 10:39:00,
2013-01-18 04:44:00,1.8,-2.9,30.35,SSE,163,0.0,2.0,80,0.00,,---,0.00,VWS V13.01,2013-01-18 10:44:00,
2013-01-18 04:49:00,1.8,-2.9,30.35,South,172,0.0,2.0,80,0.00,,---,0.00,VWS V13.01,2013-01-18 10:49:00,
2013-01-18 04:54:00,1.9,-2.8,30.34,South,180,0.0,2.0,80,0.00,,---,0.00,VWS V13.01,2013-01-18 10:54:00,
2013-01-18 04:59:00,2.0,-2.7,30.33,SSW,207,0.0,3.0,80,0.00,,---,0.00,VWS V13.01,2013-01-18 10:59:00,
2013-01-18 05:04:00,2.2,-2.3,30.33,SSW,207,0.0,2.0,81,0.00,,---,0.00,VWS V13.01,2013-01-18 11:04:00,
2013-01-18 05:09:00,2.4,-2.3,30.33,SSW,207,0.0,2.0,80,0.00,,---,0.00,VWS V13.01,2013-01-18 11:09:00,
2013-01-18 05:14:00,2.6,-2.2,30.33,SSW,203,1.0,3.0,80,0.00,,---,0.00,VWS V13.01,2013-01-18 11:14:00,
2013-01-18 05:19:00,2.7,-2.0,30.33,South,191,0.0,3.0,80,0.00,,---,0.00,VWS V13.01,2013-01-18 11:19:00,
2013-01-18 05:24:00,2.8,-2.0,30.33,SSW,192,0.0,3.0,80,0.00,,---,0.00,VWS V13.01,2013-01-18 11:24:00,
2013-01-18 05:29:00,3.0,-1.8,30.33,SSW,192,0.0,3.0,80,0.00,,---,0.00,VWS V13.01,2013-01-18 11:29:00,
2013-01-18 05:34:00,3.2,-1.6,30.32,South,191,0.0,0.0,80,0.00,,---,0.00,VWS V13.01,2013-01-18 11:34:00,
2013-01-18 05:39:00,3.3,-1.5,30.32,South,191,0.0,1.0,80,0.00,,---,0.00,VWS V13.01,2013-01-18 11:39:00,
2013-01-18 05:44:00,3.5,-1.3,30.32,South,180,0.0,4.0,80,0.00,,---,0.00,VWS V13.01,2013-01-18 11:44:00,
2013-01-18 05:49:00,3.6,-1.2,30.31,SSW,208,0.0,4.0,80,0.00,,---,0.00,VWS V13.01,2013-01-18 11:49:00,
2013-01-18 05:54:00,3.8,-1.2,30.31,South,183,0.0,4.0,79,0.00,,---,0.00,VWS V13.01,2013-01-18 11:54:00,
2013-01-18 05:59:00,3.9,-1.1,30.30,South,183,1.0,4.0,79,0.00,,---,0.00,VWS V13.01,2013-01-18 11:59:00,
2013-01-18 06:04:00,4.1,-0.9,30.30,South,183,0.0,1.0,79,0.00,,---,0.00,VWS V13.01,2013-01-18 12:04:00,
2013-01-18 06:09:00,4.2,-0.9,30.29,South,183,0.0,2.0,79,0.00,,---,0.00,VWS V13.01,2013-01-18 12:09:00,
2013-01-18 06:14:00,4.4,-0.7,30.29,SSE,160,0.0,3.0,79,0.00,,---,0.00,VWS V13.01,2013-01-18 12:14:00,
2013-01-18 06:19:00,4.5,-0.6,30.29,SSE,163,0.0,3.0,79,0.00,,---,0.00,VWS V13.01,2013-01-18 12:19:00,
2013-01-18 06:24:00,4.7,-0.4,30.29,SSW,195,2.0,4.0,79,0.00,,---,0.00,VWS V13.01,2013-01-18 12:24:00,
2013-01-18 06:29:00,4.8,-0.3,30.29,South,172,0.0,4.0,79,0.00,,---,0.00,VWS V13.01,2013-01-18 12:29:00,
2013-01-18 06:34:00,4.9,-0.2,30.29,SSW,200,2.0,2.0,79,0.00,,---,0.00,VWS V13.01,2013-01-18 12:34:00,
2013-01-18 06:39:00,4.9,0.1,30.28,SSW,210,1.0,2.0,80,0.00,,---,0.00,VWS V13.01,2013-01-18 12:39:00,
2013-01-18 06:44:00,5.0,0.2,30.28,SSW,204,1.0,2.0,80,0.00,,---,0.00,VWS V13.01,2013-01-18 12:44:00,
2013-01-18 06:49:00,5.2,0.4,30.28,SSW,195,1.0,2.0,80,0.00,,---,0.00,VWS V13.01,2013-01-18 12:49:00,
2013-01-18 06:54:00,5.3,0.8,30.28,SSW,206,3.0,3.0,81,0.00,,---,0.00,VWS V13.01,2013-01-18 12:54:00,
2013-01-18 06:59:00,5.5,0.9,30.28,SSW,196,0.0,6.0,81,0.00,,---,0.00,VWS V13.01,2013-01-18 12:59:00,
2013-01-18 07:04:00,5.6,1.0,30.28,South,180,2.0,3.0,81,0.00,,---,0.00,VWS V13.01,2013-01-18 13:04:00,
2013-01-18 07:09:00,5.7,1.1,30.28,SSW,213,0.0,4.0,81,0.00,,---,0.00,VWS V13.01,2013-01-18 13:09:00,
2013-01-18 07:14:00,5.8,1.2,30.27,SW,217,2.0,6.0,81,0.00,,---,0.00,VWS V13.01,2013-01-18 13:14:00,
2013-01-18 07:19:00,5.9,1.6,30.26,SSW,209,0.0,6.0,82,0.00,,---,0.00,VWS V13.01,2013-01-18 13:19:00,
2013-01-18 07:24:00,6.0,1.7,30.26,South,173,0.0,6.0,82,0.00,,---,0.00,VWS V13.01,2013-01-18 13:24:00,
2013-01-18 07:29:00,6.0,1.7,30.26,South,182,0.0,6.0,82,0.00,,---,0.00,VWS V13.01,2013-01-18 13:29:00,
2013-01-18 07:34:00,6.0,1.7,30.25,SSW,192,0.0,1.0,82,0.00,,---,0.00,VWS V13.01,2013-01-18 13:34:00,
2013-01-18 07:39:00,6.0,1.7,30.25,SSW,192,1.0,2.0,82,0.00,,---,0.00,VWS V13.01,2013-01-18 13:39:00,
2013-01-18 07:44:00,6.1,1.8,30.24,SSW,192,2.0,2.0,82,0.00,,---,0.00,VWS V13.01,2013-01-18 13:44:00,
2013-01-18 07:49:00,6.1,1.8,30.24,SW,219,0.0,3.0,82,0.00,,---,0.00,VWS V13.01,2013-01-18 13:49:00,
2013-01-18 07:54:00,6.2,1.9,30.23,SSE,163,0.0,3.0,82,0.00,,---,0.00,VWS V13.01,2013-01-18 13:54:00,
2013-01-18 07:59:00,6.3,2.0,30.23,South,172,1.0,5.0,82,0.00,,---,0.00,VWS V13.01,2013-01-18 13:59:00,
2013-01-18 08:04:00,6.3,2.0,30.22,South,184,4.0,4.0,82,0.00,,---,0.00,VWS V13.01,2013-01-18 14:04:00,
2013-01-18 08:09:00,6.4,2.1,30.22,South,184,2.0,4.0,82,0.00,,---,0.00,VWS V13.01,2013-01-18 14:09:00,
2013-01-18 08:14:00,6.5,2.2,30.22,South,186,0.0,4.0,82,0.00,,---,0.00,VWS V13.01,2013-01-18 14:14:00,
2013-01-18 08:19:00,6.7,2.4,30.22,SSW,192,1.0,4.0,82,0.00,,---,0.00,VWS V13.01,2013-01-18 14:19:00,
2013-01-18 08:24:00,6.7,2.4,30.21,ESE,120,0.0,4.0,82,0.00,,---,0.00,VWS V13.01,2013-01-18 14:24:00,
2013-01-18 08:29:00,6.7,2.4,30.21,SSE,153,0.0,4.0,82,0.00,,---,0.00,VWS V13.01,2013-01-18 14:29:00,
2013-01-18 08:34:00,6.8,2.5,30.20,SSE,160,0.0,2.0,82,0.00,,---,0.00,VWS V13.01,2013-01-18 14:34:00,
2013-01-18 08:39:00,6.8,2.5,30.19,South,182,1.0,2.0,82,0.00,,---,0.00,VWS V13.01,2013-01-18 14:39:00,
2013-01-18 08:44:00,6.8,2.5,30.19,SW,217,3.0,3.0,82,0.00,,---,0.00,VWS V13.01,2013-01-18 14:44:00,
2013-01-18 08:49:00,6.8,2.5,30.18,South,169,0.0,3.0,82,0.00,,---,0.00,VWS V13.01,2013-01-18 14:49:00,
2013-01-18 08:54:00,6.8,2.5,30.18,South,187,1.0,3.0,82,0.00,,---,0.00,VWS V13.01,2013-01-18 14:54:00,
2013-01-18 08:59:00,6.9,2.6,30.17,SSE,162,0.0,4.0,82,0.00,,---,0.00,VWS V13.01,2013-01-18 14:59:00,
2013-01-18 09:04:00,6.9,2.8,30.17,SE,140,1.0,4.0,83,0.00,,---,0.00,VWS V13.01,2013-01-18 15:04:00,
2013-01-18 09:10:00,7.0,2.9,30.17,SSE,156,0.0,4.0,83,0.00,,---,0.00,VWS V13.01,2013-01-18 15:10:00,
2013-01-18 09:15:00,7.1,3.0,30.16,SSE,157,0.0,4.0,83,0.00,,---,0.00,VWS V13.01,2013-01-18 15:15:00,
2013-01-18 09:20:00,7.1,3.0,30.16,WSW,246,0.0,4.0,83,0.00,,---,0.00,VWS V13.01,2013-01-18 15:20:00,
2013-01-18 09:25:00,7.2,3.1,30.15,SW,218,1.0,4.0,83,0.00,,---,0.00,VWS V13.01,2013-01-18 15:25:00,
2013-01-18 09:30:00,7.3,3.2,30.15,North,5,0.0,4.0,83,0.00,,---,0.00,VWS V13.01,2013-01-18 15:30:00,
2013-01-18 09:35:00,7.3,3.2,30.15,SSE,167,0.0,3.0,83,0.00,,---,0.00,VWS V13.01,2013-01-18 15:35:00,
2013-01-18 09:40:00,7.3,3.2,30.14,SSE,168,0.0,3.0,83,0.00,,---,0.00,VWS V13.01,2013-01-18 15:40:00,
2013-01-18 09:45:00,7.5,3.4,30.14,SSE,167,0.0,3.0,83,0.00,,---,0.00,VWS V13.01,2013-01-18 15:45:00,
2013-01-18 09:50:00,7.6,3.8,30.14,South,169,0.0,3.0,84,0.00,,---,0.00,VWS V13.01,2013-01-18 15:50:00,
2013-01-18 09:55:00,7.7,3.6,30.14,South,174,0.0,3.0,83,0.00,,---,0.00,VWS V13.01,2013-01-18 15:55:00,
2013-01-18 10:00:00,7.8,3.7,30.13,East,101,0.0,3.0,83,0.00,,---,0.00,VWS V13.01,2013-01-18 16:00:00,
2013-01-18 10:05:00,7.9,3.8,30.13,SSE,165,0.0,0.0,83,0.00,,---,0.00,VWS V13.01,2013-01-18 16:05:00,
2013-01-18 10:10:00,8.1,4.3,30.12,East,96,0.0,2.0,84,0.00,,---,0.00,VWS V13.01,2013-01-18 16:10:00,
2013-01-18 10:15:00,8.3,4.2,30.12,SE,137,0.0,2.0,83,0.00,,---,0.00,VWS V13.01,2013-01-18 16:15:00,
2013-01-18 10:20:00,8.3,4.2,30.12,East,101,0.0,2.0,83,0.00,,---,0.00,VWS V13.01,2013-01-18 16:20:00,
2013-01-18 10:25:00,8.5,4.4,30.11,SE,130,0.0,4.0,83,0.00,,---,0.00,VWS V13.01,2013-01-18 16:25:00,
2013-01-18 10:30:00,8.6,4.5,30.11,SSE,155,0.0,4.0,83,0.00,,---,0.00,VWS V13.01,2013-01-18 16:30:00,
2013-01-18 10:35:00,8.7,4.6,30.12,SE,144,0.0,1.0,83,0.00,,---,0.00,VWS V13.01,2013-01-18 16:35:00,
2013-01-18 10:40:00,8.8,4.4,30.11,SSE,165,2.0,2.0,82,0.00,,---,0.00,VWS V13.01,2013-01-18 16:40:00,
2013-01-18 10:45:00,8.9,4.5,30.11,SSE,165,0.0,2.0,82,0.00,,---,0.00,VWS V13.01,2013-01-18 16:45:00,
2013-01-18 10:50:00,8.8,4.4,30.11,SSE,160,3.0,3.0,82,0.00,,---,0.00,VWS V13.01,2013-01-18 16:50:00,
2013-01-18 10:55:00,8.7,4.3,30.10,SSE,168,0.0,3.0,82,0.00,,---,0.00,VWS V13.01,2013-01-18 16:55:00,
2013-01-18 11:00:00,8.7,4.3,30.09,East,84,0.0,3.0,82,0.00,,---,0.00,VWS V13.01,2013-01-18 17:00:00,
2013-01-18 11:05:00,8.7,4.3,30.09,NE,54,1.0,1.0,82,0.00,,---,0.00,VWS V13.01,2013-01-18 17:05:00,
2013-01-18 11:10:00,8.9,4.5,30.09,ENE,75,1.0,2.0,82,0.00,,---,0.00,VWS V13.01,2013-01-18 17:10:00,
2013-01-18 11:15:00,9.1,4.7,30.08,SE,131,0.0,2.0,82,0.00,,---,0.00,VWS V13.01,2013-01-18 17:15:00,
2013-01-18 11:20:00,9.3,4.9,30.07,SE,142,0.0,3.0,82,0.00,,---,0.00,VWS V13.01,2013-01-18 17:20:00,
2013-01-18 11:25:00,9.5,5.1,30.06,ESE,118,1.0,5.0,82,0.00,,---,0.00,VWS V13.01,2013-01-18 17:25:00,
2013-01-18 11:30:00,9.7,5.1,30.06,SSE,162,4.0,5.0,81,0.00,,---,0.00,VWS V13.01,2013-01-18 17:30:00,
2013-01-18 11:35:00,9.8,5.2,30.06,SSE,150,1.0,2.0,81,0.00,,---,0.00,VWS V13.01,2013-01-18 17:35:00,
2013-01-18 11:40:00,9.9,5.2,30.05,ESE,112,0.0,2.0,81,0.00,,---,0.00,VWS V13.01,2013-01-18 17:40:00,
2013-01-18 11:45:00,9.9,5.2,30.04,ESE,113,1.0,2.0,81,0.00,,---,0.00,VWS V13.01,2013-01-18 17:45:00,
2013-01-18 11:50:00,10.0,5.3,30.04,South,183,4.0,4.0,81,0.00,,---,0.00,VWS V13.01,2013-01-18 17:50:00,
2013-01-18 11:55:00,10.1,5.4,30.03,SSE,167,0.0,4.0,81,0.00,,---,0.00,VWS V13.01,2013-01-18 17:55:00,
2013-01-18 12:00:00,10.3,5.6,30.02,SE,132,0.0,4.0,81,0.00,,---,0.00,VWS V13.01,2013-01-18 18:00:00,
2013-01-18 12:05:00,10.5,5.6,30.02,SSE,165,0.0,3.0,80,0.00,,---,0.00,VWS V13.01,2013-01-18 18:05:00,
2013-01-18 12:10:00,10.7,5.8,30.02,ESE,123,0.0,3.0,80,0.00,,---,0.00,VWS V13.01,2013-01-18 18:10:00,
2013-01-18 12:15:00,10.8,5.9,30.01,SW,222,0.0,3.0,80,0.00,,---,0.00,VWS V13.01,2013-01-18 18:15:00,
2013-01-18 12:20:00,10.8,5.9,30.01,East,79,0.0,3.0,80,0.00,,---,0.00,VWS V13.01,2013-01-18 18:20:00,
2013-01-18 12:25:00,10.9,5.9,30.01,SSW,200,1.0,3.0,80,0.00,,---,0.00,VWS V13.01,2013-01-18 18:25:00,
2013-01-18 12:30:00,11.0,6.1,30.00,East,96,1.0,3.0,80,0.00,,---,0.00,VWS V13.01,2013-01-18 18:30:00,
2013-01-18 12:35:00,11.0,6.1,30.00,SE,126,0.0,1.0,80,0.00,,---,0.00,VWS V13.01,2013-01-18 18:35:00,
2013-01-18 12:40:00,11.1,6.2,30.00,ENE,78,1.0,2.0,80,0.00,,---,0.00,VWS V13.01,2013-01-18 18:40:00,
2013-01-18 12:45:00,11.2,6.0,29.99,SE,141,0.0,2.0,79,0.00,,---,0.00,VWS V13.01,2013-01-18 18:45:00,
2013-01-18 12:50:00,11.2,6.0,29.99,South,171,1.0,2.0,79,0.00,,---,0.00,VWS V13.01,2013-01-18 18:50:00,
2013-01-18 12:55:00,11.4,6.4,29.99,South,171,0.0,2.0,80,0.00,,---,0.00,VWS V13.01,2013-01-18 18:55:00,
2013-01-18 13:00:00,11.7,6.7,29.98,South,171,0.0,2.0,80,0.00,,---,0.00,VWS V13.01,2013-01-18 19:00:00,
2013-01-18 13:05:00,11.8,6.8,29.98,South,171,0.0,1.0,80,0.00,,---,0.00,VWS V13.01,2013-01-18 19:05:00,
2013-01-18 13:10:00,12.0,7.0,29.97,South,171,0.0,1.0,80,0.00,,---,0.00,VWS V13.01,2013-01-18 19:10:00,
2013-01-18 13:15:00,12.1,7.1,29.96,South,171,0.0,2.0,80,0.00,,---,0.00,VWS V13.01,2013-01-18 19:15:00,
2013-01-18 13:20:00,12.2,6.9,29.96,ESE,121,0.0,2.0,79,0.00,,---,0.00,VWS V13.01,2013-01-18 19:20:00,
2013-01-18 13:25:00,12.3,7.0,29.96,ESE,120,0.0,2.0,79,0.00,,---,0.00,VWS V13.01,2013-01-18 19:25:00,
2013-01-18 13:30:00,12.3,7.0,29.95,East,80,0.0,2.0,79,0.00,,---,0.00,VWS V13.01,2013-01-18 19:30:00,
2013-01-18 13:36:00,12.5,7.2,29.95,SE,139,0.0,1.0,79,0.00,,---,0.00,VWS V13.01,2013-01-18 19:36:00,
2013-01-18 13:41:00,12.5,7.2,29.95,SSE,166,0.0,2.0,79,0.00,,---,0.00,VWS V13.01,2013-01-18 19:41:00,
2013-01-18 13:46:00,12.5,7.0,29.95,NE,46,0.0,2.0,78,0.00,,---,0.00,VWS V13.01,2013-01-18 19:46:00,
2013-01-18 13:51:00,12.6,7.3,29.95,ENE,72,1.0,2.0,79,0.00,,---,0.00,VWS V13.01,2013-01-18 19:51:00,
2013-01-18 13:56:00,12.6,7.3,29.95,East,80,1.0,2.0,79,0.00,,---,0.00,VWS V13.01,2013-01-18 19:56:00,
2013-01-18 14:01:00,12.7,7.2,29.95,SSE,153,1.0,2.0,78,0.00,,---,0.00,VWS V13.01,2013-01-18 20:01:00,
2013-01-18 14:06:00,12.8,7.5,29.95,SSE,149,0.0,1.0,79,0.00,,---,0.00,VWS V13.01,2013-01-18 20:06:00,
2013-01-18 14:11:00,12.9,7.3,29.94,SSW,205,1.0,1.0,78,0.00,,---,0.00,VWS V13.01,2013-01-18 20:11:00,
2013-01-18 14:16:00,13.1,7.5,29.94,SSW,205,0.0,1.0,78,0.00,,---,0.00,VWS V13.01,2013-01-18 20:16:00,
2013-01-18 14:21:00,13.2,7.9,29.94,SSW,205,0.0,1.0,79,0.00,,---,0.00,VWS V13.01,2013-01-18 20:21:00,
2013-01-18 14:26:00,13.4,8.1,29.94,SSW,205,0.0,1.0,79,0.00,,---,0.00,VWS V13.01,2013-01-18 20:26:00,
2013-01-18 14:31:00,13.5,8.2,29.93,SSW,202,0.0,2.0,79,0.00,,---,0.00,VWS V13.01,2013-01-18 20:31:00,
2013-01-18 14:36:00,13.5,8.2,29.93,SSW,202,0.0,1.0,79,0.00,,---,0.00,VWS V13.01,2013-01-18 20:36:00,
2013-01-18 14:41:00,13.6,8.3,29.93,SSW,202,2.0,2.0,79,0.00,,---,0.00,VWS V13.01,2013-01-18 20:41:00,
2013-01-18 14:46:00,13.5,7.9,29.92,SSE,165,0.0,3.0,78,0.00,,---,0.00,VWS V13.01,2013-01-18 20:46:00,
2013-01-18 14:51:00,13.5,7.9,29.92,SSE,165,0.0,3.0,78,0.00,,---,0.00,VWS V13.01,2013-01-18 20:51:00,
2013-01-18 14:56:00,13.5,8.2,29.92,SSE,167,0.0,3.0,79,0.00,,---,0.00,VWS V13.01,2013-01-18 20:56:00,
2013-01-18 15:01:00,13.5,8.2,29.91,SSE,167,0.0,3.0,79,0.00,,---,0.00,VWS V13.01,2013-01-18 21:01:00,
2013-01-18 15:06:00,13.5,8.2,29.91,ESE,106,1.0,1.0,79,0.00,,---,0.00,VWS V13.01,2013-01-18 21:06:00,
2013-01-18 15:11:00,13.5,8.2,29.92,SE,132,0.0,1.0,79,0.00,,---,0.00,VWS V13.01,2013-01-18 21:11:00,
2013-01-18 15:16:00,13.5,8.2,29.92,WSW,248,0.0,1.0,79,0.00,,---,0.00,VWS V13.01,2013-01-18 21:16:00,
2013-01-18 15:21:00,13.5,8.2,29.92,South,183,0.0,2.0,79,0.00,,---,0.00,VWS V13.01,2013-01-18 21:21:00,
2013-01-18 15:26:00,13.5,8.2,29.91,South,183,0.0,2.0,79,0.00,,---,0.00,VWS V13.01,2013-01-18 21:26:00,
2013-01-18 15:31:00,13.5,8.2,29.91,South,183,0.0,2.0,79,0.00,,---,0.00,VWS V13.01,2013-01-18 21:31:00,
2013-01-18 15:36:00,13.5,8.2,29.91,SSE,161,1.0,2.0,79,0.00,,---,0.00,VWS V13.01,2013-01-18 21:36:00,
2013-01-18 15:41:00,13.5,8.2,29.90,SSE,161,0.0,2.0,79,0.00,,---,0.00,VWS V13.01,2013-01-18 21:41:00,
2013-01-18 15:46:00,13.5,8.5,29.90,SSE,161,0.0,2.0,80,0.00,,---,0.00,VWS V13.01,2013-01-18 21:46:00,
2013-01-18 15:51:00,13.5,8.5,29.90,SSE,163,0.0,2.0,80,0.00,,---,0.00,VWS V13.01,2013-01-18 21:51:00,
2013-01-18 15:56:00,13.5,8.5,29.90,WSW,250,0.0,2.0,80,0.00,,---,0.00,VWS V13.01,2013-01-18 21:56:00,
2013-01-18 16:01:00,13.5,8.5,29.90,NNE,14,0.0,2.0,80,0.00,,---,0.00,VWS V13.01,2013-01-18 22:01:00,
2013-01-18 16:06:00,13.5,8.5,29.89,NNE,15,0.0,0.0,80,0.00,,---,0.00,VWS V13.01,2013-01-18 22:06:00,
2013-01-18 16:11:00,13.5,8.5,29.89,ESE,122,2.0,2.0,80,0.00,,---,0.00,VWS V13.01,2013-01-18 22:11:00,
2013-01-18 16:16:00,13.5,8.5,29.90,SE,126,0.0,2.0,80,0.00,,---,0.00,VWS V13.01,2013-01-18 22:16:00,
2013-01-18 16:21:00,13.4,8.7,29.90,SSE,153,1.0,2.0,81,0.00,,---,0.00,VWS V13.01,2013-01-18 22:21:00,
2013-01-18 16:26:00,13.4,8.7,29.91,SSE,155,0.0,2.0,81,0.00,,---,0.00,VWS V13.01,2013-01-18 22:26:00,
2013-01-18 16:31:00,13.4,8.7,29.91,SSE,155,0.0,2.0,81,0.00,,---,0.00,VWS V13.01,2013-01-18 22:31:00,
2013-01-18 16:36:00,13.4,8.9,29.91,SSE,155,0.0,0.0,82,0.00,,---,0.00,VWS V13.01,2013-01-18 22:36:00,
2013-01-18 16:41:00,13.4,8.9,29.91,SSE,155,0.0,1.0,82,0.00,,---,0.00,VWS V13.01,2013-01-18 22:41:00,
2013-01-18 16:46:00,13.4,8.9,29.90,SSE,155,0.0,1.0,82,0.00,,---,0.00,VWS V13.01,2013-01-18 22:46:00,
2013-01-18 16:51:00,13.4,8.9,29.91,SSE,155,0.0,1.0,82,0.00,,---,0.00,VWS V13.01,2013-01-18 22:51:00,
2013-01-18 16:56:00,13.4,8.9,29.90,SSE,155,0.0,1.0,82,0.00,,---,0.00,VWS V13.01,2013-01-18 22:56:00,
2013-01-18 17:01:00,13.5,9.0,29.90,SSE,155,0.0,1.0,82,0.00,,---,0.00,VWS V13.01,2013-01-18 23:01:00,
2013-01-18 17:06:00,13.5,9.0,29.89,SSE,155,0.0,0.0,82,0.00,,---,0.00,VWS V13.01,2013-01-18 23:06:00,
2013-01-18 17:11:00,13.5,9.0,29.89,SSE,155,0.0,0.0,82,0.00,,---,0.00,VWS V13.01,2013-01-18 23:11:00,
2013-01-18 17:16:00,13.5,9.0,29.89,ENE,65,1.0,1.0,82,0.00,,---,0.00,VWS V13.01,2013-01-18 23:16:00,
2013-01-18 17:21:00,13.5,9.0,29.89,ENE,68,0.0,1.0,82,0.00,,---,0.00,VWS V13.01,2013-01-18 23:21:00,
2013-01-18 17:26:00,13.5,9.3,29.89,ENE,68,0.0,1.0,83,0.00,,---,0.00,VWS V13.01,2013-01-18 23:26:00,
2013-01-18 17:31:00,13.6,9.4,29.91,ENE,68,0.0,1.0,83,0.00,,---,0.00,VWS V13.01,2013-01-18 23:31:00,
2013-01-18 17:36:00,13.6,9.4,29.90,ENE,68,0.0,0.0,83,0.00,,---,0.00,VWS V13.01,2013-01-18 23:36:00,
2013-01-18 17:41:00,13.7,9.5,29.90,ENE,68,0.0,0.0,83,0.00,,---,0.00,VWS V13.01,2013-01-18 23:41:00,
2013-01-18 17:46:00,13.7,9.5,29.90,ENE,68,0.0,0.0,83,0.00,,---,0.00,VWS V13.01,2013-01-18 23:46:00,
2013-01-18 17:51:00,13.8,9.9,29.89,ENE,68,0.0,0.0,84,0.00,,---,0.00,VWS V13.01,2013-01-18 23:51:00,
2013-01-18 17:56:00,13.9,10.0,29.89,ENE,68,0.0,1.0,84,0.00,,---,0.00,VWS V13.01,2013-01-18 23:56:00,
2013-01-18 18:01:00,13.9,10.0,29.89,ENE,68,0.0,1.0,84,0.00,,---,0.00,VWS V13.01,2013-01-19 00:01:00,
2013-01-18 18:06:00,14.0,9.8,29.89,ENE,68,0.0,0.0,83,0.00,,---,0.00,VWS V13.01,2013-01-19 00:06:00,
2013-01-18 18:11:00,14.0,9.8,29.88,ENE,68,0.0,0.0,83,0.00,,---,0.00,VWS V13.01,2013-01-19 00:11:00,
2013-01-18 18:17:00,14.0,9.8,29.88,ENE,68,0.0,0.0,83,0.00,,---,0.00,VWS V13.01,2013-01-19 00:17:00,
2013-01-18 18:21:00,14.1,9.9,29.88,ENE,68,0.0,0.0,83,0.00,,---,0.00,VWS V13.01,2013-01-19 00:21:00,
2013-01-18 18:27:00,14.1,9.9,29.88,ENE,68,0.0,0.0,83,0.00,,---,0.00,VWS V13.01,2013-01-19 00:27:00,
2013-01-18 18:32:00,14.2,10.3,29.87,ENE,68,0.0,0.0,84,0.00,,---,0.00,VWS V13.01,2013-01-19 00:32:00,
2013-01-18 18:37:00,14.3,10.1,29.88,ENE,68,0.0,0.0,83,0.00,,---,0.00,VWS V13.01,2013-01-19 00:37:00,
2013-01-18 18:42:00,14.3,10.1,29.87,ENE,68,0.0,0.0,83,0.00,,---,0.00,VWS V13.01,2013-01-19 00:42:00,
2013-01-18 18:47:00,14.3,10.1,29.87,ENE,68,0.0,0.0,83,0.00,,---,0.00,VWS V13.01,2013-01-19 00:47:00,
2013-01-18 18:52:00,14.3,10.1,29.87,ENE,68,0.0,0.0,83,0.00,,---,0.00,VWS V13.01,2013-01-19 00:52:00,
2013-01-18 18:57:00,14.4,12.5,29.86,ENE,68,0.0,0.0,92,0.00,,---,0.00,VWS V13.01,2013-01-19 00:57:00,
2013-01-18 19:02:00,14.4,12.5,29.86,ENE,68,0.0,0.0,92,0.00,,---,0.00,VWS V13.01,2013-01-19 01:02:00,
2013-01-18 19:07:00,14.4,10.5,29.86,ENE,68,0.0,0.0,84,0.00,,---,0.00,VWS V13.01,2013-01-19 01:07:00,
2013-01-18 19:12:00,14.4,10.5,29.86,ENE,68,0.0,0.0,84,0.00,,---,0.00,VWS V13.01,2013-01-19 01:12:00,
2013-01-18 19:17:00,14.4,10.5,29.86,ENE,68,0.0,0.0,84,0.00,,---,0.00,VWS V13.01,2013-01-19 01:17:00,
2013-01-18 19:22:00,14.5,10.6,29.86,ENE,68,0.0,0.0,84,0.00,,---,0.00,VWS V13.01,2013-01-19 01:22:00,
2013-01-18 19:27:00,14.6,10.7,29.86,ENE,68,0.0,0.0,84,0.00,,---,0.00,VWS V13.01,2013-01-19 01:27:00,
2013-01-18 19:32:00,14.6,10.9,29.86,ENE,68,0.0,0.0,85,0.00,,---,0.00,VWS V13.01,2013-01-19 01:32:00,
2013-01-18 19:37:00,14.7,11.0,29.86,ENE,68,0.0,0.0,85,0.00,,---,0.00,VWS V13.01,2013-01-19 01:37:00,
2013-01-18 19:42:00,14.7,11.0,29.86,ENE,68,0.0,0.0,85,0.00,,---,0.00,VWS V13.01,2013-01-19 01:42:00,
2013-01-18 19:47:00,14.8,11.1,29.86,ENE,68,0.0,0.0,85,0.00,,---,0.00,VWS V13.01,2013-01-19 01:47:00,
2013-01-18 19:52:00,14.8,11.1,29.86,ENE,68,0.0,0.0,85,0.00,,---,0.00,VWS V13.01,2013-01-19 01:52:00,
2013-01-18 19:57:00,14.9,11.2,29.86,ENE,68,0.0,0.0,85,0.00,,---,0.00,VWS V13.01,2013-01-19 01:57:00,
2013-01-18 20:02:00,15.0,11.3,29.86,ENE,68,0.0,0.0,85,0.00,,---,0.00,VWS V13.01,2013-01-19 02:02:00,
2013-01-18 20:07:00,15.1,11.4,29.86,ENE,68,0.0,0.0,85,0.00,,---,0.00,VWS V13.01,2013-01-19 02:07:00,
2013-01-18 20:12:00,15.1,11.4,29.85,ENE,68,0.0,0.0,85,0.00,,---,0.00,VWS V13.01,2013-01-19 02:12:00,
2013-01-18 20:17:00,15.2,11.5,29.85,ENE,68,0.0,0.0,85,0.00,,---,0.00,VWS V13.01,2013-01-19 02:17:00,
2013-01-18 20:23:00,15.2,11.5,29.85,ENE,68,0.0,0.0,85,0.00,,---,0.00,VWS V13.01,2013-01-19 02:23:00,
2013-01-18 20:27:00,15.3,11.6,29.85,ENE,68,0.0,0.0,85,0.00,,---,0.00,VWS V13.01,2013-01-19 02:27:00,
2013-01-18 20:33:00,15.4,12.0,29.85,ENE,68,0.0,0.0,86,0.00,,---,0.00,VWS V13.01,2013-01-19 02:33:00,
2013-01-18 20:38:00,15.5,12.1,29.85,ENE,68,0.0,0.0,86,0.00,,---,0.00,VWS V13.01,2013-01-19 02:38:00,
2013-01-18 20:43:00,15.7,12.3,29.85,ENE,68,0.0,0.0,86,0.00,,---,0.00,VWS V13.01,2013-01-19 02:43:00,
2013-01-18 20:48:00,15.8,12.4,29.85,ENE,68,0.0,0.0,86,0.00,,---,0.00,VWS V13.01,2013-01-19 02:48:00,
2013-01-18 20:53:00,15.9,12.5,29.85,ENE,68,0.0,0.0,86,0.00,,---,0.00,VWS V13.01,2013-01-19 02:53:00,
2013-01-18 20:58:00,15.9,12.5,29.84,ENE,68,0.0,0.0,86,0.00,,---,0.00,VWS V13.01,2013-01-19 02:58:00,
2013-01-18 21:03:00,16.0,12.6,29.84,ENE,68,0.0,0.0,86,0.00,,---,0.00,VWS V13.01,2013-01-19 03:03:00,
2013-01-18 21:08:00,16.0,12.6,29.84,ENE,68,0.0,0.0,86,0.00,,---,0.00,VWS V13.01,2013-01-19 03:08:00,
2013-01-18 21:13:00,16.0,12.6,29.84,ENE,68,0.0,0.0,86,0.00,,---,0.00,VWS V13.01,2013-01-19 03:13:00,
2013-01-18 21:18:00,16.1,12.7,29.84,ENE,68,0.0,0.0,86,0.00,,---,0.00,VWS V13.01,2013-01-19 03:18:00,
2013-01-18 21:23:00,16.1,12.7,29.84,ENE,68,0.0,0.0,86,0.00,,---,0.00,VWS V13.01,2013-01-19 03:23:00,
2013-01-18 21:28:00,16.2,12.8,29.84,ENE,68,0.0,0.0,86,0.00,,---,0.00,VWS V13.01,2013-01-19 03:28:00,
2013-01-18 21:33:00,16.2,12.8,29.84,ENE,68,0.0,0.0,86,0.00,,---,0.00,VWS V13.01,2013-01-19 03:33:00,
2013-01-18 21:38:00,16.3,12.9,29.84,ENE,68,0.0,0.0,86,0.00,,---,0.00,VWS V13.01,2013-01-19 03:38:00,
2013-01-18 21:43:00,16.3,12.9,29.84,ENE,68,0.0,0.0,86,0.00,,---,0.00,VWS V13.01,2013-01-19 03:43:00,
2013-01-18 21:48:00,16.4,12.9,29.84,ENE,68,0.0,0.0,86,0.00,,---,0.00,VWS V13.01,2013-01-19 03:48:00,
2013-01-18 21:53:00,16.4,12.9,29.84,ENE,68,0.0,0.0,86,0.00,,---,0.00,VWS V13.01,2013-01-19 03:53:00,
2013-01-18 21:58:00,16.5,13.1,29.84,ENE,68,0.0,0.0,86,0.00,,---,0.00,VWS V13.01,2013-01-19 03:58:00,
2013-01-18 22:03:00,16.5,13.1,29.84,ENE,68,0.0,0.0,86,0.00,,---,0.00,VWS V13.01,2013-01-19 04:03:00,
2013-01-18 22:08:00,16.5,13.1,29.84,ENE,68,0.0,0.0,86,0.00,,---,0.00,VWS V13.01,2013-01-19 04:08:00,
2013-01-18 22:13:00,16.5,13.1,29.84,ENE,68,0.0,0.0,86,0.00,,---,0.00,VWS V13.01,2013-01-19 04:13:00,
2013-01-18 22:18:00,16.5,13.1,29.84,ENE,68,0.0,0.0,86,0.00,,---,0.00,VWS V13.01,2013-01-19 04:18:00,
2013-01-18 22:23:00,16.5,13.1,29.84,ENE,68,0.0,0.0,86,0.00,,---,0.00,VWS V13.01,2013-01-19 04:23:00,
2013-01-18 22:28:00,16.5,13.1,29.84,ENE,68,0.0,0.0,86,0.00,,---,0.00,VWS V13.01,2013-01-19 04:28:00,
2013-01-18 22:33:00,16.5,13.1,29.84,ENE,68,0.0,0.0,86,0.00,,---,0.00,VWS V13.01,2013-01-19 04:33:00,
2013-01-18 22:38:00,16.5,13.1,29.84,ENE,68,0.0,1.0,86,0.00,,---,0.00,VWS V13.01,2013-01-19 04:38:00,
2013-01-18 22:43:00,16.5,13.1,29.84,ENE,65,0.0,1.0,86,0.00,,---,0.00,VWS V13.01,2013-01-19 04:43:00,
2013-01-18 22:48:00,16.5,13.1,29.84,ENE,65,0.0,1.0,86,0.00,,---,0.00,VWS V13.01,2013-01-19 04:48:00,
2013-01-18 22:53:00,16.5,13.1,29.85,ENE,65,0.0,1.0,86,0.00,,---,0.00,VWS V13.01,2013-01-19 04:53:00,
2013-01-18 22:58:00,16.5,13.1,29.84,NE,34,0.0,1.0,86,0.00,,---,0.00,VWS V13.01,2013-01-19 04:58:00,
2013-01-18 23:01:00,16.4,12.9,29.84,NE,34,0.0,1.0,86,0.00,,---,0.00,VWS V13.01,2013-01-19 05:01:00,
2013-01-18 23:03:00,16.4,12.9,29.84,NE,34,0.0,0.0,86,0.00,,---,0.00,VWS V13.01,2013-01-19 05:03:00,
2013-01-18 23:08:00,16.4,12.9,29.84,NNE,24,0.0,3.0,86,0.00,,---,0.00,VWS V13.01,2013-01-19 05:08:00,
2013-01-18 23:13:00,16.4,12.9,29.85,NNE,24,0.0,3.0,86,0.00,,---,0.00,VWS V13.01,2013-01-19 05:13:00,
2013-01-18 23:18:00,16.3,12.9,29.84,NNE,24,0.0,3.0,86,0.00,,---,0.00,VWS V13.01,2013-01-19 05:18:00,
2013-01-18 23:23:00,16.3,12.9,29.84,NNE,24,0.0,3.0,86,0.00,,---,0.00,VWS V13.01,2013-01-19 05:23:00,
2013-01-18 23:28:00,16.3,12.9,29.84,NNE,24,0.0,3.0,86,0.00,,---,0.00,VWS V13.01,2013-01-19 05:28:00,
2013-01-18 23:33:00,16.3,12.9,29.84,NNE,24,0.0,0.0,86,0.00,,---,0.00,VWS V13.01,2013-01-19 05:33:00,
2013-01-18 23:38:00,16.3,12.9,29.84,NNE,24,0.0,0.0,86,0.00,,---,0.00,VWS V13.01,2013-01-19 05:38:00,
2013-01-18 23:43:00,16.3,12.9,29.84,NNE,24,0.0,0.0,86,0.00,,---,0.00,VWS V13.01,2013-01-19 05:43:00,
2013-01-18 23:48:00,16.3,12.9,29.84,NNE,24,0.0,0.0,86,0.00,,---,0.00,VWS V13.01,2013-01-19 05:48:00,
2013-01-18 23:53:00,16.3,12.9,29.84,NNE,24,0.0,0.0,86,0.00,,---,0.00,VWS V13.01,2013-01-19 05:53:00,
2013-01-18 23:58:00,16.3,12.9,29.84,NNE,24,0.0,0.0,86,0.00,,---,0.00,VWS V13.01,2013-01-19 05:58:00,